Latest Weather Observations for Roma

IDQ60801

Issued at 3:02 pm EST Wednesday 28 June 2017 (issued every 30 minutes, with the page automatically refreshed every 10 minutes)

About weather observations | Map of weather stations | Latest weather observations for QLD | Other Formats
Station Details ID: 043091 Name: ROMA AIRPORT Lat: -26.55 Lon: 148.77 Height: 307.38 m
Data from the previous 72 hours. | See also: Recent months at Roma
Date/Time
EST
Temp
°C
App
Temp
°C
Dew
Point
°C
Rel
Hum
%
Delta-T
°C
Wind Press
QNH
hPa
Press
MSL
hPa
Rain since
9am
mm
Dir  Spd
km/h
Gust
km/h
Spd
kts
Gust
kts
28/03:00pm 25.1 - 10.6 40 8.2 - - - - - 1020.1 1020.0 0.0
28/02:30pm 25.1 - 10.6 40 8.2 - - - - - 1020.2 1020.1 0.0
28/02:00pm 24.1 - 10.4 42 7.7 - - - - - 1020.6 1020.4 0.0
28/01:30pm 23.4 - 10.5 44 7.2 - - - - - 1020.9 1020.8 0.0
28/01:00pm 24.8 - 11.0 42 7.8 - - - - - 1021.1 1021.0 0.0
28/12:30pm 23.3 - 12.3 50 6.3 - - - - - 1021.7 1021.6 0.0
28/12:00pm 22.0 - 12.5 54 5.4 - - - - - 1022.3 1022.2 0.0
28/11:30am 21.8 - 12.6 56 5.3 - - - - - 1023.0 1022.9 0.0
28/11:00am 20.1 - 12.6 62 4.3 - - - - - 1023.8 1023.8 0.0
28/10:30am 19.5 - 12.8 65 3.8 - - - - - 1024.1 1024.0 0.0
28/10:00am 19.0 - 12.3 65 3.8 - - - - - 1024.2 1024.1 0.0
28/09:30am 18.6 - 12.6 68 3.4 - - - - - 1024.2 1024.1 0.0
28/09:00am 16.9 - 12.0 73 2.7 - - - - - 1024.0 1023.9 0.0
28/08:30am 15.4 - 11.4 77 2.2 - - - - - 1023.6 1023.6 0.0
28/08:00am 12.9 - 10.3 84 1.4 - - - - - 1023.4 1023.3 0.0
28/07:30am 11.2 - 8.2 82 1.5 - - - - - 1023.1 1023.0 0.0
28/07:00am 10.7 - 7.9 83 1.4 - - - - - 1022.7 1022.6 0.0
28/06:30am 11.2 - 8.1 81 1.5 - - - - - 1022.5 1022.4 0.0
28/06:00am 11.7 - 8.4 80 1.6 - - - - - 1022.5 1022.4 0.0
28/05:30am 13.1 - 8.4 73 2.4 - - - - - 1022.1 1022.0 0.0
28/05:00am 13.8 - 9.5 75 2.2 - - - - - 1021.9 1021.8 0.0
28/04:30am 14.0 - 9.4 74 2.4 - - - - - 1021.5 1021.4 0.0
28/04:00am 13.4 - 9.1 75 2.2 - - - - - 1021.9 1021.8 0.0
28/03:30am 13.2 - 8.9 75 2.2 - - - - - 1021.7 1021.6 0.0
28/03:00am 12.8 - 7.9 72 2.4 - - - - - 1021.6 1021.5 0.0
28/02:30am 12.5 - 7.4 71 2.5 - - - - - 1021.8 1021.7 0.0
28/02:00am 14.0 - 8.0 67 3.0 - - - - - 1021.9 1021.8 0.0
28/01:30am 14.4 - 7.7 64 3.4 - - - - - 1021.8 1021.7 0.0
28/01:00am 14.9 - 7.5 61 3.7 - - - - - 1021.6 1021.5 0.0
28/12:30am 14.7 - 7.3 61 3.7 - - - - - 1021.6 1021.5 0.0
28/12:00am 14.4 - 6.7 60 3.8 - - - - - 1021.4 1021.3 0.0
 
Date/Time
EST
Temp
°C
App
Temp
°C
Dew
Point
°C
Rel
Hum
%
Delta-T
°C
Wind Press
QNH
hPa
Press
MSL
hPa
Rain since
9am
mm
Dir  Spd
km/h
Gust
km/h
Spd
kts
Gust
kts
27/11:30pm 15.7 - 7.5 58 4.1 - - - - - 1021.5 1021.4 0.0
27/11:00pm 16.3 - 7.0 54 4.7 - - - - - 1021.6 1021.5 0.0
27/10:30pm 16.8 - 7.4 54 4.8 - - - - - 1021.6 1021.5 0.0
27/10:00pm 17.9 - 7.0 49 5.5 - - - - - 1021.8 1021.7 0.0
27/09:30pm 18.7 - 7.5 48 5.8 - - - - - 1021.9 1021.8 0.0
27/09:00pm 18.2 - 7.6 50 5.4 - - - - - 1021.9 1021.8 0.0
27/08:30pm 18.4 - 8.9 54 5.0 - - - - - 1021.8 1021.7 0.0
27/08:00pm 16.3 - 7.3 55 4.5 - - - - - 1021.7 1021.6 0.0
27/07:30pm 17.4 - 7.2 51 5.2 - - - - - 1021.5 1021.4 0.0
27/07:00pm 19.2 - 8.2 49 5.7 - - - - - 1021.1 1021.0 0.0
27/06:30pm 18.7 - 7.2 47 5.9 - - - - - 1020.9 1020.8 0.0
27/06:00pm 19.1 - 6.9 45 6.2 - - - - - 1020.9 1020.8 0.0
27/05:30pm 19.4 - 5.1 39 7.1 - - - - - 1020.7 1020.5 0.0
27/05:00pm 21.8 - 5.3 34 8.3 - - - - - 1020.4 1020.3 0.0
27/04:30pm 24.4 - 5.7 30 9.7 - - - - - 1020.3 1020.2 0.0
27/04:00pm 25.6 - 5.2 27 10.5 - - - - - 1020.2 1020.1 0.0
27/03:30pm 25.8 - 5.9 28 10.4 - - - - - 1020.2 1020.1 0.0
27/03:00pm 26.2 - 5.2 26 10.8 - - - - - 1020.2 1020.1 0.0
27/02:30pm 26.1 - 6.2 28 10.5 - - - - - 1020.4 1020.3 0.0
27/02:00pm 25.8 - 5.4 27 10.5 - - - - - 1020.6 1020.4 0.0
27/01:30pm 25.8 - 5.9 28 10.4 - - - - - 1020.8 1020.6 0.0
27/01:00pm 26.0 - 6.6 29 10.2 - - - - - 1021.2 1021.1 0.0
27/12:30pm 24.6 - 5.9 30 9.7 - - - - - 1021.8 1021.7 0.0
27/12:00pm 24.0 - 6.3 32 9.2 - - - - - 1022.3 1022.2 0.0
27/11:30am 22.5 - 6.3 35 8.4 - - - - - 1022.7 1022.6 0.0
27/11:00am 20.7 - 6.6 40 7.2 - - - - - 1023.0 1022.9 0.0
27/10:30am 22.1 - 7.1 38 7.8 - - - - - 1023.5 1023.4 0.0
27/10:00am 19.9 - 6.3 41 6.9 - - - - - 1023.7 1023.7 0.0
27/09:30am 18.2 - 5.4 43 6.3 - - - - - 1023.7 1023.7 0.0
27/09:00am 15.5 - 4.6 48 5.2 - - - - - 1023.6 1023.6 0.0
27/08:30am 12.3 - 3.3 54 4.1 - - - - - 1023.1 1023.0 0.0
27/08:00am 10.7 - 3.0 59 3.4 - - - - - 1022.8 1022.7 0.0
27/07:30am 9.5 - 2.8 63 2.9 - - - - - 1022.4 1022.3 0.0
27/07:00am 8.4 - 2.4 66 2.5 - - - - - 1022.6 1022.5 0.0
27/06:30am 8.2 - 2.2 66 2.5 - - - - - 1022.1 1022.0 0.0
27/06:00am 7.4 - 1.9 68 2.3 - - - - - 1022.0 1021.9 0.0
27/05:30am 7.2 - 1.3 66 2.4 - - - - - 1022.1 1022.0 0.0
27/05:00am 7.3 - 1.0 64 2.6 - - - - - 1021.7 1021.6 0.0
27/04:30am 7.7 - 1.1 63 2.7 - - - - - 1021.6 1021.5 0.0
27/04:00am 8.0 - 1.6 64 2.7 - - - - - 1021.6 1021.5 0.0
27/03:30am 8.9 - 2.3 63 2.8 - - - - - 1021.9 1021.8 0.0
27/03:00am 9.2 - 2.1 61 3.0 - - - - - 1021.9 1021.8 0.0
27/02:30am 8.6 - 2.0 63 2.8 - - - - - 1021.6 1021.5 0.0
27/02:00am 8.0 - 1.6 64 2.7 - - - - - 1021.6 1021.5 0.0
27/01:30am 8.1 - 1.9 65 2.6 - - - - - 1021.7 1021.6 0.0
27/01:00am 6.9 - 0.8 65 2.5 - - - - - 1021.9 1021.8 0.0
27/12:30am 7.0 - -0.2 60 2.8 - - - - - 1021.9 1021.8 0.0
27/12:00am 8.7 - 1.1 59 3.1 - - - - - 1021.8 1021.7 0.0
 
Date/Time
EST
Temp
°C
App
Temp
°C
Dew
Point
°C
Rel
Hum
%
Delta-T
°C
Wind Press
QNH
hPa
Press
MSL
hPa
Rain since
9am
mm
Dir  Spd
km/h
Gust
km/h
Spd
kts
Gust
kts
26/11:30pm 8.1 - 0.6 59 3.1 - - - - - 1021.6 1021.5 0.0
26/11:00pm 8.2 - 0.4 58 3.2 - - - - - 1021.8 1021.7 0.0
26/10:30pm 9.8 - 0.9 54 3.7 - - - - - 1022.0 1021.9 0.0
26/10:00pm 9.2 - 1.4 58 3.3 - - - - - 1021.9 1021.8 0.0
26/09:30pm 10.3 - 0.3 50 4.1 - - - - - 1021.5 1021.4 0.0
26/09:00pm 10.0 - 0.9 53 3.8 - - - - - 1021.5 1021.4 0.0
26/08:30pm 9.9 - 0.5 52 3.9 - - - - - 1021.5 1021.4 0.0
26/08:00pm 11.1 - -0.1 46 4.6 - - - - - 1021.4 1021.3 0.0
26/07:30pm 12.1 - 0.2 44 5.0 - - - - - 1021.1 1021.0 0.0
26/07:00pm 13.2 - 0.9 43 5.3 - - - - - 1021.0 1020.9 0.0
26/06:30pm 16.2 - 0.3 34 7.0 - - - - - 1020.8 1020.6 0.0
26/06:00pm 16.0 - -1.5 30 7.3 - - - - - 1020.6 1020.4 0.0
26/05:30pm 20.1 - 0.0 26 9.0 - - - - - 1020.1 1020.0 0.0
26/05:00pm 22.6 - -0.2 22 10.4 - - - - - 1019.8 1019.7 0.0
26/04:30pm 24.4 - 0.0 20 11.3 - - - - - 1019.6 1019.5 0.0
26/04:00pm 25.2 - 0.0 19 11.8 - - - - - 1019.5 1019.4 0.0
26/03:30pm 25.8 - 0.5 19 12.0 - - - - - 1019.2 1019.1 0.0
26/03:00pm 25.8 - -0.3 18 12.2 - - - - - 1019.4 1019.3 0.0
26/02:30pm 25.9 - 0.5 19 12.1 - - - - - 1019.5 1019.4 0.0
26/02:00pm 26.3 - 0.9 19 12.2 - - - - - 1019.4 1019.3 0.0
26/01:30pm 25.4 - 0.8 20 11.7 - - - - - 1019.5 1019.4 0.0
26/01:00pm 25.5 - 1.6 21 11.5 - - - - - 1019.8 1019.7 0.0
26/12:30pm 24.8 - 1.7 22 11.1 - - - - - 1020.6 1020.4 0.0
26/12:00pm 24.3 - 2.5 24 10.6 - - - - - 1020.9 1020.8 0.0
26/11:30am 23.9 - 2.7 25 10.3 - - - - - 1021.3 1021.2 0.0
26/11:00am 22.5 - 2.6 27 9.6 - - - - - 1021.6 1021.5 0.0
26/10:30am 21.6 - 2.8 29 9.0 - - - - - 1022.0 1021.9 0.0
26/10:00am 19.7 - 3.0 33 7.9 - - - - - 1022.1 1022.0 0.0
26/09:30am 17.0 - 3.3 40 6.4 - - - - - 1022.1 1022.0 0.0
26/09:00am 14.2 - 3.4 48 4.9 - - - - - 1021.7 1021.6 0.0
26/08:30am 10.7 - 2.8 58 3.5 - - - - - 1021.4 1021.3 0.0
26/08:00am 7.9 - 2.8 70 2.2 - - - - - 1021.3 1021.2 0.0
26/07:30am 4.8 - 1.3 78 1.4 - - - - - 1021.0 1020.9 0.0
26/07:00am 3.4 - 0.5 81 1.1 - - - - - 1020.4 1020.3 0.0
26/06:30am 3.5 - 0.2 79 1.3 - - - - - 1020.3 1020.2 0.0
26/06:00am 3.9 - 0.2 77 1.4 - - - - - 1019.8 1019.7 0.0
26/05:30am 3.8 - 0.5 79 1.3 - - - - - 1019.9 1019.8 0.0
26/05:00am 3.7 - -0.1 76 1.4 - - - - - 1019.5 1019.4 0.0
26/04:30am 4.2 - 0.4 76 1.5 - - - - - 1019.6 1019.5 0.0
26/04:00am 3.8 - -0.2 75 1.5 - - - - - 1019.6 1019.5 0.0
26/03:30am 4.4 - 0.0 73 1.7 - - - - - 1019.3 1019.2 0.0
26/03:00am 5.2 - 0.2 70 1.9 - - - - - 1019.3 1019.2 0.0
26/02:30am 6.0 - 1.2 71 1.9 - - - - - 1019.2 1019.1 0.0
26/02:00am 6.9 - 2.0 71 2.0 - - - - - 1019.4 1019.3 0.0
26/01:30am 5.8 - 0.6 69 2.1 - - - - - 1019.4 1019.3 0.0
26/01:00am 6.5 - 1.4 70 2.1 - - - - - 1019.4 1019.3 0.0
26/12:30am 7.1 - 1.6 68 2.3 - - - - - 1019.7 1019.6 0.0
26/12:00am 7.4 - 1.5 66 2.4 - - - - - 1020.0 1019.9 0.0
 
Date/Time
EST
Temp
°C
App
Temp
°C
Dew
Point
°C
Rel
Hum
%
Delta-T
°C
Wind Press
QNH
hPa
Press
MSL
hPa
Rain since
9am
mm
Dir  Spd
km/h
Gust
km/h
Spd
kts
Gust
kts
25/11:30pm 7.6 - 0.8 62 2.8 - - - - - 1020.0 1019.9 0.0
25/11:00pm 9.4 - 1.3 57 3.4 - - - - - 1019.9 1019.8 0.0
25/10:30pm 9.2 - 2.1 61 3.0 - - - - - 1019.8 1019.7 0.0
25/10:00pm 9.5 - 1.9 59 3.2 - - - - - 1019.7 1019.6 0.0
25/09:30pm 9.8 - 2.2 59 3.3 - - - - - 1019.7 1019.6 0.0
25/09:00pm 9.4 - 0.8 55 3.6 - - - - - 1019.7 1019.6 0.0
25/08:30pm 11.1 - 1.6 52 4.1 - - - - - 1019.3 1019.2 0.0
25/08:00pm 11.5 - 2.0 52 4.1 - - - - - 1019.0 1018.9 0.0
25/07:30pm 12.7 - 1.4 46 4.9 - - - - - 1018.8 1018.7 0.0
25/07:00pm 14.2 - 1.8 43 5.5 - - - - - 1018.4 1018.3 0.0
25/06:30pm 14.7 - 0.9 39 6.0 - - - - - 1018.2 1018.1 0.0
25/06:00pm 17.1 - 1.1 34 7.2 - - - - - 1018.0 1017.8 0.0
25/05:30pm 20.0 - 2.4 31 8.3 - - - - - 1017.7 1017.5 0.0
25/05:00pm 23.0 - 1.9 25 10.0 - - - - - 1017.5 1017.3 0.0
25/04:30pm 24.6 - 2.1 23 10.9 - - - - - 1017.3 1017.1 0.0
25/04:00pm 25.7 - 1.8 21 11.6 - - - - - 1016.9 1016.8 0.0
25/03:30pm 25.6 - 1.0 20 11.8 - - - - - 1016.8 1016.7 0.0

Other Formats:

Comma delimited format used in spreadsheet applications
http://www.bom.gov.au/fwo/IDQ60801/IDQ60801.94515.axf

JavaScript Object Notation format (JSON) in row-major order
http://www.bom.gov.au/fwo/IDQ60801/IDQ60801.94515.json